createdAt,value
2023-01-15T00:00:06.074Z,60.26
2023-01-15T00:02:33.015Z,60.43
2023-01-15T00:05:03.121Z,59.93
2023-01-15T00:07:30.943Z,59.87
2023-01-15T00:09:59.218Z,59.79
2023-01-15T00:12:26.117Z,59.51
2023-01-15T00:14:53.222Z,61.93
2023-01-15T00:17:20.204Z,64.43
2023-01-15T00:19:47.395Z,63.52
2023-01-15T00:22:14.475Z,62.01
2023-01-15T00:24:59.841Z,61.35
2023-01-15T00:27:38.980Z,60.41
2023-01-15T00:30:08.224Z,60.26
2023-01-15T00:32:37.271Z,60.13
2023-01-15T00:35:05.051Z,60.14
2023-01-15T00:37:32.197Z,59.80
2023-01-15T00:39:59.716Z,59.68
2023-01-15T00:42:29.270Z,60.04
2023-01-15T00:44:56.324Z,63.30
2023-01-15T00:47:23.584Z,64.15
2023-01-15T00:49:51.766Z,62.82
2023-01-15T00:52:18.656Z,61.35
2023-01-15T00:54:45.569Z,60.94
2023-01-15T00:57:12.514Z,60.00
2023-01-15T00:59:39.401Z,59.77
2023-01-15T01:02:06.485Z,63.17
2023-01-15T01:04:33.320Z,63.98
2023-01-15T01:07:00.216Z,62.26
2023-01-15T01:09:27.101Z,61.32
2023-01-15T01:11:54.011Z,60.22
2023-01-15T01:14:22.139Z,59.68
2023-01-15T01:16:52.116Z,59.64
2023-01-15T01:19:20.299Z,60.01
2023-01-15T01:21:48.883Z,63.48
2023-01-15T01:24:18.600Z,63.77
2023-01-15T01:26:46.663Z,61.82
2023-01-15T01:29:19.650Z,60.97
2023-01-15T01:31:47.606Z,60.04
2023-01-15T01:34:15.362Z,59.71
2023-01-15T01:36:44.594Z,59.73
2023-01-15T01:39:17.272Z,63.02
2023-01-15T01:41:45.361Z,63.86
2023-01-15T01:44:34.879Z,62.27
2023-01-15T01:47:23.047Z,60.31
2023-01-15T01:49:53.937Z,59.59
2023-01-15T01:52:27.878Z,60.74
2023-01-15T01:54:55.572Z,64.13
2023-01-15T01:57:23.533Z,63.37
2023-01-15T01:59:51.236Z,61.54
2023-01-15T02:02:22.288Z,60.55
2023-01-15T02:04:49.927Z,60.11
2023-01-15T02:07:17.753Z,59.42
2023-01-15T02:09:44.800Z,61.57
2023-01-15T02:12:25.301Z,64.09
2023-01-15T02:15:09.910Z,62.98
2023-01-15T02:18:15.913Z,61.50
2023-01-15T02:20:50.929Z,60.50
2023-01-15T02:23:53.508Z,59.83
2023-01-15T02:26:58.441Z,59.96
2023-01-15T02:29:52.938Z,59.51
2023-01-15T02:32:44.954Z,62.81
2023-01-15T02:35:22.156Z,64.32
2023-01-15T02:37:54.677Z,62.46
2023-01-15T02:40:25.796Z,61.73
2023-01-15T02:42:54.897Z,60.73
2023-01-15T02:45:28.122Z,60.52
2023-01-15T02:48:06.216Z,60.21
2023-01-15T02:50:39.188Z,60.06
2023-01-15T02:53:12.708Z,60.05
2023-01-15T02:55:44.589Z,60.00
2023-01-15T02:58:16.749Z,59.42
2023-01-15T03:00:48.006Z,61.52
2023-01-15T03:03:33.054Z,64.22
2023-01-15T03:06:18.522Z,63.45
2023-01-15T03:08:46.605Z,61.55
2023-01-15T03:11:16.088Z,60.71
2023-01-15T03:13:55.145Z,60.40
2023-01-15T03:17:05.953Z,59.98
2023-01-15T03:19:43.941Z,60.10
2023-01-15T03:22:23.075Z,60.58
2023-01-15T03:24:55.445Z,60.72
2023-01-15T03:27:23.007Z,60.65
2023-01-15T03:30:07.916Z,60.51
2023-01-15T03:32:35.845Z,60.40
2023-01-15T03:35:26.256Z,59.95
2023-01-15T03:37:53.485Z,60.04
2023-01-15T03:40:22.261Z,59.65
2023-01-15T03:43:17.070Z,59.85
2023-01-15T03:45:50.812Z,59.74
2023-01-15T03:48:31.326Z,59.76
2023-01-15T03:51:21.201Z,59.65
2023-01-15T03:53:54.755Z,59.41
2023-01-15T03:56:39.473Z,60.89
2023-01-15T03:59:22.081Z,64.31
2023-01-15T04:01:54.631Z,63.40
2023-01-15T04:04:26.350Z,61.44
2023-01-15T04:06:56.104Z,60.42
2023-01-15T04:09:24.203Z,60.12
2023-01-15T04:11:54.153Z,59.48
2023-01-15T04:14:21.065Z,60.43
2023-01-15T04:16:51.597Z,63.82
2023-01-15T04:19:18.647Z,63.19
2023-01-15T04:21:52.454Z,61.82
2023-01-15T04:24:19.357Z,60.47
2023-01-15T04:26:46.359Z,59.48
2023-01-15T04:29:13.216Z,61.24
2023-01-15T04:31:40.378Z,63.84
2023-01-15T04:34:07.822Z,63.25
2023-01-15T04:36:37.335Z,60.92
2023-01-15T04:39:05.787Z,59.58
2023-01-15T04:41:51.293Z,61.88
2023-01-15T04:44:18.268Z,63.73
2023-01-15T04:46:47.864Z,61.90
2023-01-15T04:49:18.794Z,60.25
2023-01-15T04:51:46.365Z,59.38
2023-01-15T04:54:16.077Z,62.21
2023-01-15T04:56:46.815Z,63.60
2023-01-15T04:59:15.191Z,61.51
2023-01-15T05:02:01.814Z,59.97
2023-01-15T05:04:29.150Z,60.27
2023-01-15T05:06:58.561Z,63.16
2023-01-15T05:09:25.525Z,63.00
2023-01-15T05:11:52.459Z,60.50
2023-01-15T05:14:19.263Z,59.53
2023-01-15T05:16:46.262Z,62.30
2023-01-15T05:19:13.314Z,63.55
2023-01-15T05:21:43.054Z,61.76
2023-01-15T05:24:15.727Z,59.82
2023-01-15T05:26:43.595Z,59.71
2023-01-15T05:29:11.957Z,62.86
2023-01-15T05:31:39.735Z,62.92
2023-01-15T05:34:06.642Z,61.11
2023-01-15T05:36:33.843Z,59.31
2023-01-15T05:39:02.510Z,61.35
2023-01-15T05:41:49.306Z,63.74
2023-01-15T05:44:28.362Z,62.06
2023-01-15T05:46:58.505Z,59.89
2023-01-15T05:49:28.392Z,59.16
2023-01-15T05:51:55.568Z,61.57
2023-01-15T05:54:25.469Z,63.51
2023-01-15T05:56:52.504Z,61.29
2023-01-15T05:59:22.234Z,59.48
2023-01-15T06:01:49.302Z,58.76
2023-01-15T06:04:21.040Z,60.87
2023-01-15T06:06:52.705Z,63.40
2023-01-15T06:09:20.678Z,60.99
2023-01-15T06:11:47.737Z,58.71
2023-01-15T06:14:15.403Z,59.78
2023-01-15T06:16:42.350Z,62.24
2023-01-15T06:19:11.242Z,62.91
2023-01-15T06:21:38.301Z,59.88
2023-01-15T06:24:05.872Z,58.77
2023-01-15T06:26:32.818Z,60.92
2023-01-15T06:28:59.767Z,62.45
2023-01-15T06:31:29.540Z,60.68
2023-01-15T06:33:56.652Z,58.58
2023-01-15T06:36:25.145Z,59.92
2023-01-15T06:38:52.077Z,62.33
2023-01-15T06:41:46.544Z,61.95
2023-01-15T06:44:35.817Z,58.92
2023-01-15T06:47:24.037Z,60.16
2023-01-15T06:49:54.765Z,62.35
2023-01-15T06:52:23.328Z,62.27
2023-01-15T06:54:50.435Z,59.33
2023-01-15T06:57:19.169Z,59.25
2023-01-15T06:59:46.812Z,61.46
2023-01-15T07:02:14.042Z,62.71
2023-01-15T07:04:40.983Z,60.87
2023-01-15T07:07:07.943Z,58.57
2023-01-15T07:09:34.990Z,60.23
2023-01-15T07:12:02.048Z,63.07
2023-01-15T07:14:28.897Z,62.32
2023-01-15T07:16:59.407Z,60.54
2023-01-15T07:19:27.393Z,59.46
2023-01-15T07:21:55.165Z,62.17
2023-01-15T07:24:22.129Z,63.37
2023-01-15T07:26:49.068Z,61.48
2023-01-15T07:29:15.997Z,59.60
2023-01-15T07:31:43.244Z,60.64
2023-01-15T07:34:13.359Z,64.21
2023-01-15T07:36:40.464Z,64.37
2023-01-15T07:39:09.248Z,62.98
2023-01-15T07:41:55.442Z,62.29
2023-01-15T07:44:41.625Z,65.19
2023-01-15T07:47:48.583Z,66.58
2023-01-15T07:50:20.558Z,67.50
2023-01-15T07:52:47.510Z,69.13
2023-01-15T07:55:14.871Z,68.38
2023-01-15T07:57:42.938Z,68.14
2023-01-15T08:00:14.888Z,68.50
2023-01-15T08:02:42.623Z,69.14
2023-01-15T08:05:11.756Z,68.68
2023-01-15T08:07:40.877Z,69.16
2023-01-15T08:10:12.978Z,69.04
2023-01-15T08:12:58.936Z,68.80
2023-01-15T08:15:26.791Z,68.45
2023-01-15T08:17:54.151Z,67.99
2023-01-15T08:20:24.622Z,67.62
2023-01-15T08:22:51.841Z,67.19
2023-01-15T08:25:21.798Z,66.95
2023-01-15T08:27:49.056Z,67.25
2023-01-15T08:30:18.951Z,66.33
2023-01-15T08:32:45.906Z,65.55
2023-01-15T08:35:13.686Z,65.26
2023-01-15T08:37:42.043Z,65.98
2023-01-15T08:40:11.303Z,64.55
2023-01-15T08:42:38.811Z,64.33
2023-01-15T08:45:06.285Z,63.79
2023-01-15T08:47:33.957Z,63.83
2023-01-15T08:50:01.004Z,63.45
2023-01-15T08:52:28.042Z,62.52
2023-01-15T08:54:54.947Z,62.50
2023-01-15T08:57:21.847Z,62.12
2023-01-15T08:59:48.899Z,61.55
2023-01-15T09:02:16.460Z,60.86
2023-01-15T09:04:43.593Z,60.50
2023-01-15T09:07:11.260Z,59.73
2023-01-15T09:09:38.566Z,62.01
2023-01-15T09:12:05.692Z,63.15
2023-01-15T09:14:56.891Z,61.98
2023-01-15T09:17:20.061Z,60.84
2023-01-15T09:19:47.114Z,59.44
2023-01-15T09:22:14.043Z,61.31
2023-01-15T09:24:40.916Z,63.74
2023-01-15T09:27:07.958Z,63.01
2023-01-15T09:29:34.919Z,62.73
2023-01-15T09:32:02.801Z,60.75
2023-01-15T09:34:29.849Z,60.74
2023-01-15T09:36:56.790Z,61.75
2023-01-15T09:39:23.751Z,61.86
2023-01-15T09:42:13.928Z,62.32
2023-01-15T09:44:53.253Z,64.18
2023-01-15T09:47:36.693Z,63.56
2023-01-15T09:50:22.550Z,65.35
2023-01-15T09:53:03.664Z,66.61
2023-01-15T09:55:34.560Z,66.82
2023-01-15T09:58:05.887Z,68.63
2023-01-15T10:00:40.324Z,68.26
2023-01-15T10:03:32.100Z,69.26
2023-01-15T10:06:14.336Z,70.29
2023-01-15T10:08:48.265Z,69.58
2023-01-15T10:11:15.267Z,70.51
2023-01-15T10:13:45.763Z,71.49
2023-01-15T10:16:19.740Z,70.75
2023-01-15T10:18:47.001Z,70.99
2023-01-15T10:21:44.812Z,71.15
2023-01-15T10:24:16.854Z,71.56
2023-01-15T10:26:44.779Z,71.97
2023-01-15T10:29:14.589Z,72.16
2023-01-15T10:31:51.667Z,72.44
2023-01-15T10:34:21.670Z,72.66
2023-01-15T10:37:19.806Z,72.23
2023-01-15T10:40:30.712Z,72.26
2023-01-15T10:43:30.340Z,72.73
2023-01-15T10:46:01.057Z,73.35
2023-01-15T10:48:38.635Z,72.31
2023-01-15T10:51:41.546Z,72.27
2023-01-15T10:54:14.385Z,72.47
2023-01-15T10:56:53.116Z,72.92
2023-01-15T10:59:51.483Z,73.39
2023-01-15T11:02:35.402Z,72.56
2023-01-15T11:05:04.452Z,72.78
2023-01-15T11:07:52.991Z,72.64
2023-01-15T11:10:26.392Z,74.27
2023-01-15T11:13:45.093Z,73.51
2023-01-15T11:16:44.404Z,72.77
2023-01-15T11:19:37.739Z,72.35
2023-01-15T11:22:10.546Z,73.55
2023-01-15T11:24:58.740Z,73.55
2023-01-15T11:27:33.013Z,73.46
2023-01-15T11:30:02.309Z,73.42
2023-01-15T11:32:32.235Z,73.26
2023-01-15T11:35:00.593Z,73.73
2023-01-15T11:37:28.816Z,73.03
2023-01-15T11:40:06.189Z,72.88
2023-01-15T11:42:52.163Z,73.16
2023-01-15T11:45:40.065Z,73.59
2023-01-15T11:48:37.804Z,73.73
2023-01-15T11:51:17.853Z,74.21
2023-01-15T11:53:48.947Z,73.94
2023-01-15T11:56:23.572Z,73.34
2023-01-15T11:58:54.722Z,73.39
2023-01-15T12:01:58.393Z,73.94
2023-01-15T12:04:56.211Z,73.75
2023-01-15T12:07:26.102Z,72.93
2023-01-15T12:10:14.313Z,73.14
2023-01-15T12:13:03.762Z,73.25
2023-01-15T12:16:02.360Z,73.74
2023-01-15T12:19:07.255Z,72.70
2023-01-15T12:22:09.688Z,72.81
2023-01-15T12:24:55.082Z,72.36
2023-01-15T12:27:48.176Z,73.25
2023-01-15T12:30:41.341Z,73.26
2023-01-15T12:33:21.229Z,72.63
2023-01-15T12:36:01.275Z,72.68
2023-01-15T12:38:49.833Z,72.90
2023-01-15T12:41:53.025Z,72.64
2023-01-15T12:45:04.285Z,72.50
2023-01-15T12:47:41.409Z,72.78
2023-01-15T12:50:32.847Z,71.83
2023-01-15T12:53:21.208Z,72.23
2023-01-15T12:55:51.107Z,71.72
2023-01-15T12:58:27.567Z,71.79
2023-01-15T13:01:07.400Z,72.13
2023-01-15T13:03:57.622Z,70.43
2023-01-15T13:06:27.326Z,70.89
2023-01-15T13:09:02.738Z,71.17
2023-01-15T13:11:30.381Z,71.88
2023-01-15T13:14:00.362Z,71.57
2023-01-15T13:16:30.860Z,71.90
2023-01-15T13:19:01.196Z,72.08
2023-01-15T13:21:29.635Z,71.46
2023-01-15T13:24:06.176Z,71.30
2023-01-15T13:26:45.719Z,70.82
2023-01-15T13:29:26.771Z,70.59
2023-01-15T13:31:59.564Z,71.07
2023-01-15T13:34:35.501Z,70.66
2023-01-15T13:37:12.642Z,69.37
2023-01-15T13:39:42.502Z,69.02
2023-01-15T13:42:32.759Z,68.91
2023-01-15T13:45:02.289Z,69.68
2023-01-15T13:47:31.603Z,69.63
2023-01-15T13:50:04.916Z,69.50
2023-01-15T13:52:33.180Z,69.00
2023-01-15T13:55:02.378Z,68.09
2023-01-15T13:57:34.646Z,67.63
2023-01-15T14:00:02.979Z,68.13
2023-01-15T14:02:39.458Z,68.59
2023-01-15T14:05:24.768Z,67.73
2023-01-15T14:07:51.726Z,67.51
2023-01-15T14:10:18.584Z,66.64
2023-01-15T14:12:45.376Z,66.32
2023-01-15T14:15:27.118Z,66.23
2023-01-15T14:18:12.923Z,65.78
2023-01-15T14:20:58.493Z,65.96
2023-01-15T14:23:31.732Z,65.85
2023-01-15T14:26:17.739Z,66.22
2023-01-15T14:28:50.723Z,66.01
2023-01-15T14:31:36.273Z,64.55
2023-01-15T14:34:17.470Z,65.31
2023-01-15T14:36:51.092Z,64.82
2023-01-15T14:39:32.769Z,64.40
2023-01-15T14:42:26.936Z,64.32
2023-01-15T14:45:06.675Z,64.44
2023-01-15T14:47:48.776Z,64.70
2023-01-15T14:50:24.579Z,65.07
2023-01-15T14:52:53.011Z,64.14
2023-01-15T14:55:20.902Z,64.17
2023-01-15T14:58:05.971Z,63.70
2023-01-15T15:00:36.172Z,63.31
2023-01-15T15:03:05.005Z,63.09
2023-01-15T15:05:34.249Z,63.80
2023-01-15T15:08:01.318Z,64.06
2023-01-15T15:10:37.995Z,63.94
2023-01-15T15:13:05.451Z,63.75
2023-01-15T15:15:41.210Z,63.06
2023-01-15T15:18:14.208Z,62.60
2023-01-15T15:20:48.002Z,62.31
2023-01-15T15:23:26.907Z,62.58
2023-01-15T15:25:58.294Z,63.16
2023-01-15T15:28:25.530Z,62.36
2023-01-15T15:30:52.917Z,61.68
2023-01-15T15:33:21.895Z,62.00
2023-01-15T15:35:57.852Z,62.47
2023-01-15T15:38:25.526Z,61.90
2023-01-15T15:40:55.143Z,62.11
2023-01-15T15:43:49.807Z,62.24
2023-01-15T15:46:45.960Z,62.70
2023-01-15T15:49:13.022Z,61.65
2023-01-15T15:51:46.066Z,60.96
2023-01-15T15:54:16.284Z,61.29
2023-01-15T15:56:46.007Z,60.87
2023-01-15T15:59:16.947Z,60.67
2023-01-15T16:01:44.696Z,61.00
2023-01-15T16:04:17.309Z,61.10
2023-01-15T16:06:44.255Z,60.41
2023-01-15T16:09:11.168Z,60.64
2023-01-15T16:11:39.173Z,60.80
2023-01-15T16:14:07.146Z,60.58
2023-01-15T16:16:34.833Z,60.29
2023-01-15T16:19:02.673Z,60.49
2023-01-15T16:21:33.936Z,60.71
2023-01-15T16:24:08.562Z,59.97
2023-01-15T16:26:38.691Z,59.75
2023-01-15T16:29:07.269Z,62.25
2023-01-15T16:31:35.518Z,64.31
2023-01-15T16:34:03.112Z,63.47
2023-01-15T16:36:38.809Z,63.06
2023-01-15T16:39:07.505Z,62.53
2023-01-15T16:41:39.313Z,61.96
2023-01-15T16:44:07.301Z,62.56
2023-01-15T16:46:36.297Z,61.58
2023-01-15T16:49:22.068Z,60.80
2023-01-15T16:51:52.402Z,61.38
2023-01-15T16:54:31.898Z,63.02
2023-01-15T16:57:19.245Z,62.48
2023-01-15T16:59:46.101Z,63.82
2023-01-15T17:02:15.032Z,64.16
2023-01-15T17:04:44.051Z,65.08
2023-01-15T17:07:14.006Z,65.20
2023-01-15T17:09:52.196Z,66.51
2023-01-15T17:12:25.939Z,67.86
2023-01-15T17:14:53.281Z,68.70
2023-01-15T17:17:23.009Z,68.74
2023-01-15T17:19:50.356Z,68.84
2023-01-15T17:22:24.362Z,70.04
2023-01-15T17:24:52.965Z,70.24
2023-01-15T17:27:20.258Z,69.74
2023-01-15T17:29:47.233Z,70.21
2023-01-15T17:32:16.163Z,71.06
2023-01-15T17:34:43.314Z,71.28
2023-01-15T17:37:10.162Z,71.72
2023-01-15T17:39:37.021Z,71.55
2023-01-15T17:42:10.714Z,71.35
2023-01-15T17:44:38.085Z,71.08
2023-01-15T17:47:04.988Z,71.57
2023-01-15T17:49:32.189Z,72.17
2023-01-15T17:51:59.542Z,72.02
2023-01-15T17:54:44.944Z,72.07
2023-01-15T17:57:30.285Z,71.68
2023-01-15T18:00:15.865Z,71.63
2023-01-15T18:03:02.376Z,71.62
2023-01-15T18:05:35.279Z,71.84
2023-01-15T18:08:04.448Z,72.38
2023-01-15T18:10:31.657Z,71.96
2023-01-15T18:12:58.553Z,71.40
2023-01-15T18:15:25.477Z,71.36
2023-01-15T18:17:52.451Z,71.49
2023-01-15T18:20:20.843Z,71.86
2023-01-15T18:22:47.987Z,72.61
2023-01-15T18:25:15.152Z,72.82
2023-01-15T18:27:43.601Z,72.55
2023-01-15T18:30:12.019Z,72.18
2023-01-15T18:32:42.523Z,72.76
2023-01-15T18:35:10.007Z,72.62
2023-01-15T18:37:36.862Z,72.56
2023-01-15T18:40:04.789Z,72.24
2023-01-15T18:42:51.033Z,72.34
2023-01-15T18:45:37.221Z,71.70
2023-01-15T18:48:04.576Z,71.23
2023-01-15T18:50:31.652Z,71.60
2023-01-15T18:52:58.685Z,72.07
2023-01-15T18:55:28.516Z,72.43
2023-01-15T18:57:56.261Z,72.33
2023-01-15T19:00:25.079Z,72.36
2023-01-15T19:02:52.726Z,72.87
2023-01-15T19:05:19.817Z,72.72
2023-01-15T19:07:47.675Z,72.61
2023-01-15T19:10:15.734Z,72.98
2023-01-15T19:12:44.508Z,72.41
2023-01-15T19:15:34.585Z,72.83
2023-01-15T19:18:20.475Z,72.35
2023-01-15T19:20:49.201Z,72.45
2023-01-15T19:23:16.740Z,72.19
2023-01-15T19:25:45.019Z,72.05
2023-01-15T19:28:15.810Z,71.60
2023-01-15T19:30:43.830Z,71.87
2023-01-15T19:33:11.182Z,72.08
2023-01-15T19:35:39.671Z,71.81
2023-01-15T19:38:08.885Z,71.90
2023-01-15T19:40:41.084Z,71.86
2023-01-15T19:43:26.832Z,71.63
2023-01-15T19:46:12.279Z,71.24
2023-01-15T19:48:58.204Z,70.77
2023-01-15T19:51:45.822Z,70.91
2023-01-15T19:54:13.393Z,70.41
2023-01-15T19:56:41.434Z,70.20
2023-01-15T19:59:08.386Z,70.84
2023-01-15T20:01:35.937Z,70.96
2023-01-15T20:04:02.810Z,70.78
2023-01-15T20:06:30.165Z,71.07
2023-01-15T20:08:57.109Z,70.87
2023-01-15T20:11:45.358Z,69.77
2023-01-15T20:14:12.405Z,70.04
2023-01-15T20:16:39.662Z,69.66
2023-01-15T20:19:06.851Z,69.73
2023-01-15T20:21:34.491Z,69.04
2023-01-15T20:24:02.165Z,69.15
2023-01-15T20:26:29.408Z,68.94
2023-01-15T20:28:56.595Z,69.45
2023-01-15T20:31:23.644Z,71.05
2023-01-15T20:33:50.558Z,71.68
2023-01-15T20:36:17.733Z,71.05
2023-01-15T20:38:44.976Z,71.12
2023-01-15T20:41:50.614Z,70.59
2023-01-15T20:44:36.709Z,70.68
2023-01-15T20:47:23.596Z,70.39
2023-01-15T20:49:51.607Z,70.61
2023-01-15T20:52:18.624Z,70.38
2023-01-15T20:54:45.473Z,70.31
2023-01-15T20:57:12.316Z,70.26
2023-01-15T20:59:39.279Z,70.05
2023-01-15T21:02:06.683Z,70.41
2023-01-15T21:04:34.131Z,70.44
2023-01-15T21:07:01.045Z,70.14
2023-01-15T21:09:30.117Z,70.40
2023-01-15T21:11:57.053Z,69.78
2023-01-15T21:14:24.371Z,69.79
2023-01-15T21:16:52.122Z,70.36
2023-01-15T21:19:19.104Z,70.15
2023-01-15T21:21:46.125Z,69.95
2023-01-15T21:24:12.982Z,70.27
2023-01-15T21:26:39.955Z,69.69
2023-01-15T21:29:06.875Z,69.23
2023-01-15T21:31:33.772Z,69.43
2023-01-15T21:34:00.776Z,69.40
2023-01-15T21:36:27.741Z,69.75
2023-01-15T21:38:55.096Z,69.82
2023-01-15T21:41:42.216Z,68.88
2023-01-15T21:44:30.146Z,68.31
2023-01-15T21:46:58.929Z,68.25
2023-01-15T21:49:26.182Z,68.73
2023-01-15T21:51:53.668Z,68.39
2023-01-15T21:54:20.815Z,69.18
2023-01-15T21:56:49.753Z,69.05
2023-01-15T21:59:17.670Z,68.85
2023-01-15T22:01:44.729Z,68.62
2023-01-15T22:04:11.879Z,68.38
2023-01-15T22:06:39.104Z,68.28
2023-01-15T22:09:05.883Z,68.69
2023-01-15T22:11:45.114Z,68.61
2023-01-15T22:14:16.465Z,68.43
2023-01-15T22:16:44.379Z,68.26
2023-01-15T22:19:15.175Z,68.84
2023-01-15T22:21:42.127Z,68.52
2023-01-15T22:24:09.219Z,68.14
2023-01-15T22:26:38.285Z,67.87
2023-01-15T22:29:05.121Z,68.08
2023-01-15T22:31:31.973Z,68.24
2023-01-15T22:33:59.756Z,67.96
2023-01-15T22:36:27.611Z,67.68
2023-01-15T22:38:55.003Z,67.56
2023-01-15T22:41:40.450Z,66.75
2023-01-15T22:44:07.928Z,67.32
2023-01-15T22:46:35.579Z,66.85
2023-01-15T22:49:03.033Z,66.16
2023-01-15T22:51:29.995Z,66.24
2023-01-15T22:53:57.352Z,66.05
2023-01-15T22:56:24.812Z,65.93
2023-01-15T22:58:55.454Z,66.34
2023-01-15T23:01:23.387Z,66.32
2023-01-15T23:03:50.476Z,66.69
2023-01-15T23:06:20.905Z,66.53
2023-01-15T23:08:47.953Z,66.80
2023-01-15T23:11:15.821Z,66.78
2023-01-15T23:13:43.185Z,67.02
2023-01-15T23:16:10.432Z,67.11
2023-01-15T23:18:37.699Z,66.78
2023-01-15T23:21:05.854Z,66.40
2023-01-15T23:23:32.936Z,65.96
2023-01-15T23:26:03.373Z,65.72
2023-01-15T23:28:30.412Z,66.20
2023-01-15T23:30:57.260Z,66.54
2023-01-15T23:33:26.055Z,66.39
2023-01-15T23:35:53.520Z,66.20
2023-01-15T23:38:21.289Z,65.89
2023-01-15T23:40:48.443Z,65.75
2023-01-15T23:43:34.734Z,65.58
2023-01-15T23:46:22.182Z,65.07
2023-01-15T23:48:49.009Z,65.95
2023-01-15T23:51:16.048Z,65.53
2023-01-15T23:53:42.765Z,65.49
2023-01-15T23:56:09.764Z,65.43
2023-01-15T23:58:36.699Z,64.40
